Time;durP1;ratioP1;P1;durP2;ratioP2;P2;SDS_P1;SDS_P2;PMS_P1;PMS_P2;Temp;Humidity;BMP_temperature;BMP_pressure;BME280_temperature;BME280_humidity;BME280_pressure;Samples;Min_cycle;Max_cycle;Signal;HPM_P1;HPM_P2
2021/10/31 00:00:13;;;;;;;20.30;11.00;;;;;;;15.57;75.86;101430.81;5051795;28;20052;-75
2021/10/31 00:02:40;;;;;;;21.23;9.57;;;;;;;15.56;75.88;101431.72;5052768;28;20039;-75
2021/10/31 00:05:09;;;;;;;17.15;9.02;;;;;;;15.58;75.79;101432.59;5055674;28;20045;-75
2021/10/31 00:07:37;;;;;;;20.10;10.63;;;;;;;15.56;75.77;101442.38;5067533;28;20048;-74
2021/10/31 00:10:06;;;;;;;15.70;8.77;;;;;;;15.57;76.09;101434.38;5050137;28;20489;-75
2021/10/31 00:12:34;;;;;;;21.13;11.18;;;;;;;15.59;76.00;101421.97;5065188;28;20105;-75
2021/10/31 00:15:01;;;;;;;15.98;8.77;;;;;;;15.44;75.96;101428.06;5059307;28;20051;-75
2021/10/31 00:17:30;;;;;;;16.35;9.63;;;;;;;15.29;76.34;101435.06;5057086;28;20055;-75
2021/10/31 00:19:58;;;;;;;17.75;10.40;;;;;;;15.30;76.87;101440.38;5049097;28;20041;-75
2021/10/31 00:22:25;;;;;;;17.27;10.18;;;;;;;15.38;76.90;101438.66;5057329;28;20576;-75
2021/10/31 00:24:53;;;;;;;18.30;9.70;;;;;;;15.47;76.84;101435.19;5061242;28;20106;-74
2021/10/31 00:27:21;;;;;;;18.38;10.38;;;;;;;15.48;76.80;101435.19;5064072;28;20044;-76
2021/10/31 00:29:48;;;;;;;19.52;9.48;;;;;;;15.46;76.83;101428.06;5062318;28;20041;-75
2021/10/31 00:32:15;;;;;;;22.20;10.32;;;;;;;15.43;76.92;101428.03;5059000;28;20068;-75
2021/10/31 00:34:44;;;;;;;16.33;9.48;;;;;;;15.44;77.31;101425.41;5067422;28;20519;-75
2021/10/31 00:37:11;;;;;;;16.45;9.60;;;;;;;15.47;77.53;101429.84;5057630;28;20396;-75
2021/10/31 00:39:39;;;;;;;19.55;10.60;;;;;;;15.52;77.56;101425.44;5057968;28;20037;-75
2021/10/31 00:42:06;;;;;;;19.58;9.13;;;;;;;15.57;77.36;101426.41;5063281;28;20059;-75
2021/10/31 00:44:34;;;;;;;18.65;9.98;;;;;;;15.58;77.45;101417.53;5049818;28;20037;-75
2021/10/31 00:47:02;;;;;;;16.60;9.02;;;;;;;15.61;77.50;101422.88;5063200;28;20128;-75
2021/10/31 00:49:29;;;;;;;16.27;9.43;;;;;;;15.65;77.47;101410.47;5057269;28;20056;-76
2021/10/31 00:52:00;;;;;;;17.65;10.55;;;;;;;15.68;77.38;101416.72;5060826;28;20078;-74
2021/10/31 00:54:27;;;;;;;19.20;10.25;;;;;;;15.59;77.33;101418.41;5050579;28;20408;-75
2021/10/31 00:56:55;;;;;;;15.20;8.88;;;;;;;15.51;77.45;101407.69;5054306;28;20037;-75
2021/10/31 00:59:22;;;;;;;21.80;10.35;;;;;;;15.49;77.61;101406.81;5059342;28;20741;-75
2021/10/31 01:01:51;;;;;;;12.75;8.13;;;;;;;15.52;77.65;101406.81;5066740;28;20041;-75
2021/10/31 01:04:20;;;;;;;14.88;8.43;;;;;;;15.57;77.47;101415.75;5053175;28;20151;-75
2021/10/31 01:07:16;;;;;;;18.10;10.25;;;;;;;15.64;77.19;101403.38;5066609;28;20049;-75
2021/10/31 01:10:00;;;;;;;21.95;9.38;;;;;;;15.64;76.92;101406.91;5034913;28;20044;-75
2021/10/31 01:12:46;;;;;;;14.73;8.07;;;;;;;15.60;76.92;101407.78;5034951;28;20464;-75
2021/10/31 01:15:24;;;;;;;18.45;8.52;;;;;;;15.57;76.99;101398.88;5050437;28;20075;-75
2021/10/31 01:18:21;;;;;;;14.27;8.90;;;;;;;15.55;77.07;101406.88;5064851;28;20048;-74
2021/10/31 01:21:00;;;;;;;15.27;8.98;;;;;;;15.51;77.29;101410.34;5061609;28;20048;-75
2021/10/31 01:23:53;;;;;;;17.60;7.68;;;;;;;15.46;77.55;101396.13;5059619;28;20405;-75
2021/10/31 01:26:46;;;;;;;17.08;8.68;;;;;;;15.47;77.82;101398.81;5056079;28;20048;-76
2021/10/31 01:29:34;;;;;;;18.10;8.57;;;;;;;15.50;77.59;101397.94;5056245;28;20129;-74
2021/10/31 01:32:16;;;;;;;15.43;10.25;;;;;;;15.45;77.59;101389.94;5054863;28;20056;-75
2021/10/31 01:34:59;;;;;;;17.15;10.18;;;;;;;15.34;77.72;101390.75;5054587;28;20064;-75
2021/10/31 01:37:35;;;;;;;16.88;10.43;;;;;;;15.33;77.93;101379.22;5061976;28;20420;-75
2021/10/31 01:40:12;;;;;;;16.98;9.50;;;;;;;15.42;78.21;101378.41;5054542;28;20076;-75
2021/10/31 01:42:50;;;;;;;15.07;8.07;;;;;;;15.47;77.96;101381.97;5044989;28;20033;-76
2021/10/31 01:45:24;;;;;;;16.80;8.18;;;;;;;15.46;77.67;101383.72;5061114;28;20047;-75
2021/10/31 01:48:03;;;;;;;15.20;8.02;;;;;;;15.33;77.90;101381.88;5046476;28;20050;-75
2021/10/31 01:50:39;;;;;;;16.13;10.05;;;;;;;15.25;78.42;101380.94;5060213;28;20048;-75
2021/10/31 01:53:13;;;;;;;16.88;9.75;;;;;;;15.27;78.90;101386.28;5054887;28;20500;-75
2021/10/31 01:55:48;;;;;;;17.90;9.73;;;;;;;15.32;79.01;101392.50;5054133;28;20492;-76
2021/10/31 01:58:18;;;;;;;18.17;9.35;;;;;;;15.35;78.67;101389.88;5055390;28;20419;-75
2021/10/31 02:00:48;;;;;;;16.58;9.18;;;;;;;15.38;78.77;101387.22;5049359;28;20396;-75
2021/10/31 02:03:18;;;;;;;14.95;8.13;;;;;;;15.40;78.72;101386.34;5060517;28;20061;-75
2021/10/31 02:05:46;;;;;;;12.82;8.20;;;;;;;15.41;78.57;101390.81;5060075;28;20059;-75
2021/10/31 02:08:15;;;;;;;11.85;7.78;;;;;;;15.38;78.58;101382.78;5047254;28;20041;-75
2021/10/31 02:10:46;;;;;;;17.70;8.18;;;;;;;15.40;78.59;101380.16;5065403;28;20056;-75
2021/10/31 02:13:16;;;;;;;16.35;8.35;;;;;;;15.41;78.58;101381.94;5053340;28;20041;-75
2021/10/31 02:15:48;;;;;;;15.30;9.18;;;;;;;15.46;78.49;101381.06;5056618;28;20052;-75
2021/10/31 02:18:19;;;;;;;14.20;8.85;;;;;;;15.49;78.52;101375.75;5054416;28;20051;-74
2021/10/31 02:20:48;;;;;;;15.85;9.55;;;;;;;15.51;78.39;101381.97;5053218;28;20452;-76
2021/10/31 02:23:18;;;;;;;18.27;8.50;;;;;;;15.49;78.45;101375.75;5047468;28;20049;-76
2021/10/31 02:25:46;;;;;;;23.42;8.70;;;;;;;15.49;78.39;101383.72;5059517;28;20043;-75
2021/10/31 02:28:13;;;;;;;15.93;9.55;;;;;;;15.51;78.40;101378.41;5055209;28;20041;-75
2021/10/31 02:30:40;;;;;;;16.38;8.50;;;;;;;15.51;78.35;101374.00;5051716;28;20039;-75
2021/10/31 02:33:08;;;;;;;18.45;8.27;;;;;;;15.48;78.05;101376.66;5055620;28;20033;-75
2021/10/31 02:35:36;;;;;;;14.23;8.60;;;;;;;15.42;78.11;101373.06;5061823;28;20508;-75
2021/10/31 02:38:03;;;;;;;17.35;8.85;;;;;;;15.40;78.23;101373.06;5054086;28;20053;-74
2021/10/31 02:40:35;;;;;;;16.30;8.85;;;;;;;15.36;78.34;101376.56;5063728;28;20045;-75
2021/10/31 02:43:03;;;;;;;12.85;8.32;;;;;;;15.34;78.52;101377.44;5053470;28;20481;-75
2021/10/31 02:45:31;;;;;;;17.98;8.88;;;;;;;15.34;78.58;101374.78;5055984;28;20051;-76
2021/10/31 02:48:00;;;;;;;14.32;8.75;;;;;;;15.38;78.78;101373.91;5051357;28;20041;-75
2021/10/31 02:50:33;;;;;;;15.18;9.02;;;;;;;15.45;78.63;101370.41;5060931;28;20052;-75
2021/10/31 02:53:13;;;;;;;16.48;8.82;;;;;;;15.53;78.69;101376.72;5053802;28;20049;-75
2021/10/31 02:55:53;;;;;;;15.88;8.32;;;;;;;15.51;78.45;101381.09;5050397;28;20036;-75
2021/10/31 02:58:25;;;;;;;14.50;8.25;;;;;;;15.46;78.42;101380.19;5055438;28;20048;-75
2021/10/31 03:00:57;;;;;;;17.85;7.97;;;;;;;15.42;78.55;101381.06;5053865;28;20036;-75
2021/10/31 03:03:25;;;;;;;19.60;8.77;;;;;;;15.40;78.74;101381.03;5058005;28;20037;-75
2021/10/31 03:05:53;;;;;;;16.33;7.93;;;;;;;15.40;78.73;101388.13;5043294;28;20044;-72
2021/10/31 03:08:21;;;;;;;19.30;9.43;;;;;;;15.41;78.82;101371.28;5055919;28;20103;-74
2021/10/31 03:10:55;;;;;;;17.20;8.65;;;;;;;15.41;78.85;101387.25;5040000;28;20050;-74
2021/10/31 03:13:24;;;;;;;12.82;8.75;;;;;;;15.39;78.78;101381.03;5037370;28;20048;-72
2021/10/31 03:15:51;;;;;;;17.38;9.40;;;;;;;15.41;78.65;101380.16;5045948;28;20040;-74
2021/10/31 03:18:19;;;;;;;14.00;8.02;;;;;;;15.42;78.58;101368.66;5055196;28;20045;-74
2021/10/31 03:20:46;;;;;;;16.15;8.52;;;;;;;15.41;78.47;101377.50;5041653;28;20053;-75
2021/10/31 03:23:14;;;;;;;17.77;8.57;;;;;;;15.39;78.26;101371.28;5035655;28;20049;-75
2021/10/31 03:25:41;;;;;;;16.58;8.32;;;;;;;15.37;78.06;101374.78;5037378;28;20142;-75
2021/10/31 03:28:10;;;;;;;14.93;8.80;;;;;;;15.33;78.12;101373.00;5036177;28;20045;-74
2021/10/31 03:30:38;;;;;;;15.25;8.88;;;;;;;15.27;78.03;101367.66;5034299;28;20431;-74
2021/10/31 03:33:05;;;;;;;14.32;8.35;;;;;;;15.23;78.04;101361.41;5043943;28;20044;-74
2021/10/31 03:35:33;;;;;;;17.10;8.82;;;;;;;15.22;78.20;101367.63;5035844;28;20421;-75
2021/10/31 03:38:01;;;;;;;18.88;9.88;;;;;;;15.22;78.27;101359.66;5041498;28;20508;-75
2021/10/31 03:40:28;;;;;;;15.52;10.82;;;;;;;15.20;78.45;101360.50;5058404;28;20071;-75
2021/10/31 03:42:56;;;;;;;14.40;8.55;;;;;;;15.19;78.45;101358.72;5044693;28;20045;-75
2021/10/31 03:45:25;;;;;;;16.83;10.18;;;;;;;15.19;78.36;101348.97;5047003;28;23181;-73
2021/10/31 03:47:53;;;;;;;20.55;10.23;;;;;;;15.08;78.40;101350.69;5044799;28;20051;-75
2021/10/31 03:50:22;;;;;;;16.55;9.25;;;;;;;15.02;78.63;101356.88;5061912;28;20040;-74
2021/10/31 03:52:50;;;;;;;18.77;9.32;;;;;;;15.06;78.62;101353.34;5052660;28;20040;-75
2021/10/31 03:55:20;;;;;;;20.38;10.20;;;;;;;15.09;78.54;101353.38;5060536;28;20061;-75
2021/10/31 03:57:47;;;;;;;15.02;9.98;;;;;;;15.08;78.53;101348.94;5043259;28;20033;-75
2021/10/31 04:00:16;;;;;;;18.95;11.20;;;;;;;15.06;78.66;101352.44;5038154;28;20370;-74
2021/10/31 04:02:45;;;;;;;18.25;10.15;;;;;;;15.06;78.83;101361.31;5040681;28;20393;-75
2021/10/31 04:05:14;;;;;;;21.33;9.63;;;;;;;15.09;79.09;101348.06;5058382;28;20124;-75
2021/10/31 04:07:42;;;;;;;13.55;8.95;;;;;;;15.12;78.96;101350.72;5064868;28;20033;-74
2021/10/31 04:10:11;;;;;;;22.58;10.73;;;;;;;15.15;78.91;101344.53;5045857;28;20065;-74
2021/10/31 04:12:38;;;;;;;20.10;10.52;;;;;;;15.14;78.69;101342.75;5034470;28;20033;-74
2021/10/31 04:15:06;;;;;;;17.52;8.93;;;;;;;15.11;78.74;101334.72;5028640;28;20085;-75
2021/10/31 04:17:34;;;;;;;24.40;9.50;;;;;;;15.09;78.80;101334.75;5061499;28;20111;-75
2021/10/31 04:20:04;;;;;;;15.90;8.82;;;;;;;15.11;78.79;101340.06;5063753;28;20064;-75
2021/10/31 04:22:31;;;;;;;22.10;10.70;;;;;;;15.02;78.92;101332.94;5036562;28;20051;-73
2021/10/31 04:24:59;;;;;;;19.40;9.82;;;;;;;15.02;79.02;101330.28;5054378;28;20049;-74
2021/10/31 04:27:26;;;;;;;16.73;8.45;;;;;;;15.01;79.11;101327.59;5063006;28;20114;-75
2021/10/31 04:29:54;;;;;;;18.10;9.38;;;;;;;14.99;79.24;101330.22;5062390;28;20037;-73
2021/10/31 04:32:21;;;;;;;19.45;9.38;;;;;;;14.99;79.43;101324.91;5066547;28;20041;-74
2021/10/31 04:34:49;;;;;;;18.05;12.32;;;;;;;14.94;79.45;101331.97;5045748;28;20037;-75
2021/10/31 04:37:18;;;;;;;18.83;11.85;;;;;;;14.91;79.65;101321.31;5058438;28;20042;-74
2021/10/31 04:39:47;;;;;;;18.40;11.75;;;;;;;14.88;79.87;101331.06;5041004;28;20044;-75
2021/10/31 04:42:15;;;;;;;23.20;14.15;;;;;;;14.90;80.10;101329.31;5056015;28;20047;-74
2021/10/31 04:44:42;;;;;;;27.35;18.48;;;;;;;14.87;80.04;101330.16;5056932;28;20033;-74
2021/10/31 04:47:10;;;;;;;22.95;14.93;;;;;;;14.95;80.22;101325.78;5058335;28;20519;-75
2021/10/31 04:49:37;;;;;;;18.00;9.93;;;;;;;15.02;80.08;101324.94;5055949;28;20040;-75
2021/10/31 04:52:06;;;;;;;20.45;12.30;;;;;;;15.06;80.09;101332.06;5058494;28;20505;-74
2021/10/31 04:54:35;;;;;;;18.13;9.02;;;;;;;15.06;80.12;101325.84;5058512;28;20037;-75
2021/10/31 04:57:03;;;;;;;15.40;9.10;;;;;;;15.05;80.33;101327.63;5057268;28;20481;-73
2021/10/31 04:59:30;;;;;;;14.85;8.50;;;;;;;15.10;80.42;101331.19;5059218;28;20044;-75
2021/10/31 05:01:58;;;;;;;17.20;9.05;;;;;;;15.15;80.34;101328.56;5053811;28;20056;-75
2021/10/31 05:04:26;;;;;;;21.08;9.95;;;;;;;15.17;80.47;101334.78;5060301;28;20067;-74
2021/10/31 05:06:54;;;;;;;17.25;9.25;;;;;;;15.23;80.66;101333.94;5064371;28;20047;-71
2021/10/31 05:09:21;;;;;;;15.25;9.45;;;;;;;15.26;80.65;101328.63;5050127;28;20052;-74
2021/10/31 05:11:50;;;;;;;22.45;10.35;;;;;;;15.27;80.83;101325.09;5065831;28;20113;-75
2021/10/31 05:14:18;;;;;;;17.85;9.93;;;;;;;15.33;81.11;101325.13;5052323;28;20059;-75
2021/10/31 05:16:45;;;;;;;21.48;9.13;;;;;;;15.40;81.05;101329.59;5059294;28;20045;-74
2021/10/31 05:19:13;;;;;;;16.38;8.32;;;;;;;15.45;81.05;101323.41;5060249;28;20128;-74
2021/10/31 05:21:41;;;;;;;17.83;9.18;;;;;;;15.48;81.20;101325.19;5049748;28;20049;-74
2021/10/31 05:24:09;;;;;;;18.35;9.18;;;;;;;15.54;81.27;101323.50;5053477;28;20412;-75
2021/10/31 05:26:36;;;;;;;14.90;9.18;;;;;;;15.61;81.33;101321.75;5059128;28;20033;-74
2021/10/31 05:29:05;;;;;;;16.98;9.10;;;;;;;15.67;81.37;101313.78;5062839;28;20036;-74
2021/10/31 05:31:33;;;;;;;14.55;9.13;;;;;;;15.72;81.38;101317.34;5065459;28;20400;-74
2021/10/31 05:34:00;;;;;;;15.75;8.85;;;;;;;15.77;81.57;101318.25;5061905;28;20048;-75
2021/10/31 05:36:28;;;;;;;17.50;10.30;;;;;;;15.82;81.86;101324.47;5059622;28;20515;-74
2021/10/31 05:38:55;;;;;;;17.13;9.73;;;;;;;15.85;82.29;101324.50;5053960;28;20040;-73
2021/10/31 05:41:22;;;;;;;19.15;10.20;;;;;;;15.96;82.66;101327.16;5060725;28;20717;-73
2021/10/31 05:43:50;;;;;;;18.38;10.05;;;;;;;16.06;82.80;101318.34;5055384;28;20044;-74
2021/10/31 05:46:19;;;;;;;16.02;9.27;;;;;;;16.16;82.75;101327.22;5063167;28;20043;-74
2021/10/31 05:48:46;;;;;;;14.23;7.97;;;;;;;16.25;82.91;101327.25;5061083;28;20068;-74
2021/10/31 05:51:14;;;;;;;15.13;9.00;;;;;;;16.34;82.67;101324.59;5055514;28;20048;-74
2021/10/31 05:53:42;;;;;;;13.32;8.25;;;;;;;16.41;82.49;101331.69;5065581;28;20036;-75
2021/10/31 05:56:11;;;;;;;16.92;8.27;;;;;;;16.49;82.52;101331.69;5051080;28;20044;-74
2021/10/31 05:58:39;;;;;;;14.23;8.13;;;;;;;16.58;82.49;101342.38;5044001;28;20400;-73
2021/10/31 06:01:06;;;;;;;12.95;7.65;;;;;;;16.66;82.46;101341.53;5057575;28;20049;-75
2021/10/31 06:03:35;;;;;;;17.90;8.23;;;;;;;16.74;82.36;101352.16;5050066;28;20045;-75
2021/10/31 06:06:03;;;;;;;16.55;9.55;;;;;;;16.82;82.40;101362.84;5060378;28;20051;-74
2021/10/31 06:08:30;;;;;;;18.23;8.98;;;;;;;16.88;82.24;101358.38;5061611;28;20056;-74
2021/10/31 06:10:57;;;;;;;16.85;8.55;;;;;;;16.92;82.03;101352.19;5049495;28;20060;-74
2021/10/31 06:13:25;;;;;;;14.38;8.35;;;;;;;16.98;81.84;101353.94;5048122;28;20045;-73
2021/10/31 06:15:53;;;;;;;16.75;9.25;;;;;;;17.04;81.66;101361.94;5057746;28;20049;-74
2021/10/31 06:18:21;;;;;;;16.17;8.48;;;;;;;17.10;81.56;101365.50;5037143;28;20030;-74
2021/10/31 06:20:50;;;;;;;16.75;9.00;;;;;;;17.17;81.54;101366.38;5036137;28;20061;-74
2021/10/31 06:23:17;;;;;;;14.55;9.55;;;;;;;17.19;81.39;101361.03;5035172;28;20128;-74
2021/10/31 06:25:44;;;;;;;17.38;9.88;;;;;;;17.23;81.51;101366.34;5041977;28;20053;-74
2021/10/31 06:28:12;;;;;;;17.10;9.07;;;;;;;17.29;81.36;101365.44;5036333;28;20064;-74
2021/10/31 06:30:39;;;;;;;14.98;9.32;;;;;;;17.32;80.96;101363.69;5028605;28;20041;-74
2021/10/31 06:33:07;;;;;;;16.40;9.90;;;;;;;17.36;80.75;101372.56;5034188;28;20068;-73
2021/10/31 06:35:34;;;;;;;14.48;10.25;;;;;;;17.37;80.63;101380.56;5037757;28;20109;-74
2021/10/31 06:38:04;;;;;;;19.65;9.20;;;;;;;17.39;80.69;101375.22;5033529;28;20037;-73
2021/10/31 06:40:31;;;;;;;14.40;9.43;;;;;;;17.39;80.62;101373.41;5037112;28;20042;-73
2021/10/31 06:42:58;;;;;;;12.50;8.40;;;;;;;17.37;80.45;101379.66;5032813;28;20124;-74
2021/10/31 06:45:26;;;;;;;14.07;8.88;;;;;;;17.33;80.19;101383.22;5040256;28;20045;-73
2021/10/31 06:47:54;;;;;;;15.02;8.27;;;;;;;17.32;80.09;101392.16;5033941;28;20527;-74
2021/10/31 06:50:22;;;;;;;13.93;8.07;;;;;;;17.32;80.06;101393.03;5041570;28;20044;-74
2021/10/31 06:52:50;;;;;;;14.02;8.68;;;;;;;17.35;80.01;101387.69;5031185;28;20037;-74
2021/10/31 06:55:20;;;;;;;12.88;7.85;;;;;;;17.41;80.09;101389.44;5033463;28;20048;-74
2021/10/31 06:57:48;;;;;;;13.05;7.90;;;;;;;17.44;80.07;101387.66;5040080;28;20045;-74
2021/10/31 07:00:16;;;;;;;13.10;8.93;;;;;;;17.53;80.21;101384.06;5041927;28;20098;-74
2021/10/31 07:02:44;;;;;;;16.42;7.88;;;;;;;17.61;80.38;101382.28;5034814;28;20032;-74
2021/10/31 07:05:12;;;;;;;14.02;9.48;;;;;;;17.70;80.45;101379.59;5032398;28;20120;-74
2021/10/31 07:07:39;;;;;;;15.93;9.48;;;;;;;17.82;80.70;101382.22;5035455;28;20600;-74
2021/10/31 07:10:08;;;;;;;15.68;10.30;;;;;;;17.93;80.86;101371.47;5041186;28;20044;-74
2021/10/31 07:12:38;;;;;;;16.60;10.05;;;;;;;18.07;80.97;101374.09;5035838;28;20044;-74
2021/10/31 07:15:06;;;;;;;14.90;8.45;;;;;;;18.15;81.05;101378.50;5032573;28;20044;-74
2021/10/31 07:17:34;;;;;;;14.93;9.13;;;;;;;18.25;80.73;101384.66;5060543;28;20047;-75
2021/10/31 07:20:01;;;;;;;11.75;8.38;;;;;;;18.37;80.54;101378.38;5047285;28;20444;-73
2021/10/31 07:22:29;;;;;;;16.13;8.45;;;;;;;18.49;80.61;101375.63;5040043;28;20044;-74
2021/10/31 07:24:59;;;;;;;12.30;8.63;;;;;;;18.64;80.58;101373.72;5052261;28;20040;-73
2021/10/31 07:27:26;;;;;;;12.52;7.97;;;;;;;18.78;80.61;101364.72;5056196;28;20040;-73
2021/10/31 07:29:56;;;;;;;12.88;9.18;;;;;;;18.96;80.57;101360.13;5056423;28;20055;-73
2021/10/31 07:32:23;;;;;;;13.45;8.35;;;;;;;19.09;80.41;101360.88;5049464;28;20060;-73
2021/10/31 07:34:51;;;;;;;13.70;8.65;;;;;;;19.22;80.34;101350.94;5040882;28;20044;-73
2021/10/31 07:37:18;;;;;;;14.85;10.00;;;;;;;19.37;80.34;101354.31;5034965;28;20041;-72
2021/10/31 07:39:46;;;;;;;14.55;9.25;;;;;;;19.53;80.16;101352.41;5053598;28;20042;-73
2021/10/31 07:42:15;;;;;;;13.75;8.82;;;;;;;19.69;79.71;101351.28;5046036;28;20481;-73
2021/10/31 07:44:44;;;;;;;15.23;9.02;;;;;;;19.81;79.41;101343.13;5060186;28;20032;-73
2021/10/31 07:47:13;;;;;;;17.02;8.13;;;;;;;19.94;79.14;101334.91;5042070;28;20120;-72
2021/10/31 07:49:40;;;;;;;16.48;8.65;;;;;;;20.01;78.14;101331.25;5048587;28;20044;-72
2021/10/31 07:52:08;;;;;;;15.55;8.50;;;;;;;20.08;77.12;101328.47;5032429;28;20045;-73
2021/10/31 07:54:36;;;;;;;14.02;8.32;;;;;;;20.20;76.33;101319.34;5043780;28;20500;-73
2021/10/31 07:57:05;;;;;;;15.13;9.43;;;;;;;20.35;75.47;101321.81;5042120;28;20044;-72
2021/10/31 07:59:32;;;;;;;16.98;9.77;;;;;;;20.47;74.79;101318.97;5043524;28;20057;-72
2021/10/31 08:02:02;;;;;;;13.07;8.50;;;;;;;20.53;73.65;101305.44;5044559;28;20051;-72
2021/10/31 08:04:31;;;;;;;13.60;8.52;;;;;;;20.61;72.77;101305.31;5038768;28;20099;-72
2021/10/31 08:06:59;;;;;;;13.70;9.85;;;;;;;20.61;72.15;101298.13;5037067;28;20155;-73
2021/10/31 08:09:26;;;;;;;14.20;8.85;;;;;;;20.70;71.55;101299.78;5043864;28;20049;-72
2021/10/31 08:11:54;;;;;;;17.75;9.10;;;;;;;20.76;71.03;101301.47;5050208;28;20045;-73
2021/10/31 08:14:21;;;;;;;13.77;9.77;;;;;;;20.77;70.46;101295.19;5064317;28;20043;-73
2021/10/31 08:16:49;;;;;;;18.05;9.98;;;;;;;20.80;69.79;101289.78;5040982;28;20520;-73
2021/10/31 08:19:23;;;;;;;15.48;9.35;;;;;;;20.77;69.16;101292.50;5043593;28;20041;-72
2021/10/31 08:21:53;;;;;;;15.07;9.70;;;;;;;20.75;68.75;101292.53;5040730;28;20044;-74
2021/10/31 08:24:22;;;;;;;15.82;10.77;;;;;;;20.74;68.57;101296.16;5042369;28;20052;-74
2021/10/31 08:26:50;;;;;;;17.70;10.25;;;;;;;20.63;68.10;101288.25;5043094;28;20042;-74
2021/10/31 08:29:19;;;;;;;15.05;9.93;;;;;;;20.53;67.75;101294.72;5057822;28;20063;-73
2021/10/31 08:31:49;;;;;;;17.55;10.48;;;;;;;20.50;67.78;101294.75;5041968;28;20040;-74
2021/10/31 08:34:17;;;;;;;14.25;9.57;;;;;;;20.47;67.80;101293.94;5039429;28;20103;-74
2021/10/31 08:36:44;;;;;;;15.00;10.52;;;;;;;20.42;67.47;101299.34;5059500;28;20041;-74
2021/10/31 08:39:14;;;;;;;18.17;9.90;;;;;;;20.40;67.30;101298.50;5042895;28;20489;-74
2021/10/31 08:41:41;;;;;;;14.45;10.52;;;;;;;20.36;67.17;101296.75;5026946;28;20041;-74
2021/10/31 08:44:09;;;;;;;14.70;8.38;;;;;;;20.30;67.37;101295.03;5042062;28;20080;-74
2021/10/31 08:46:37;;;;;;;15.85;10.32;;;;;;;20.30;67.08;101295.03;5046988;28;20102;-74
2021/10/31 08:49:05;;;;;;;14.57;10.32;;;;;;;20.32;66.97;101296.81;5046547;28;20044;-74
2021/10/31 08:51:33;;;;;;;15.93;8.93;;;;;;;20.29;66.98;101297.72;5045614;28;20030;-74
2021/10/31 08:54:01;;;;;;;14.95;9.73;;;;;;;20.28;66.77;101306.72;5040335;28;20103;-73
2021/10/31 08:56:31;;;;;;;15.35;10.30;;;;;;;20.28;66.75;101304.03;5042038;28;20056;-74
2021/10/31 08:58:59;;;;;;;17.45;10.13;;;;;;;20.22;66.93;101291.56;5037967;28;20040;-73
2021/10/31 09:01:26;;;;;;;15.20;10.57;;;;;;;20.21;67.19;101286.28;5046156;28;20874;-73
2021/10/31 09:03:54;;;;;;;14.90;10.07;;;;;;;20.22;67.37;101285.31;5036219;28;20056;-74
2021/10/31 09:06:24;;;;;;;14.93;10.52;;;;;;;20.26;67.12;101287.97;5042878;28;20044;-74
2021/10/31 09:08:51;;;;;;;16.17;10.73;;;;;;;20.28;67.11;101280.75;5062418;28;20507;-74
2021/10/31 09:11:19;;;;;;;17.77;10.27;;;;;;;20.32;67.02;101275.34;5064095;28;20554;-74
2021/10/31 09:13:48;;;;;;;14.95;10.55;;;;;;;20.37;67.30;101274.41;5067713;28;20047;-74
2021/10/31 09:16:16;;;;;;;14.75;8.15;;;;;;;20.44;67.37;101276.06;5055314;28;20045;-74
2021/10/31 09:18:44;;;;;;;13.30;8.82;;;;;;;20.51;66.68;101267.00;5041253;28;20584;-74
2021/10/31 09:21:11;;;;;;;16.98;8.90;;;;;;;20.61;65.90;101262.38;5040520;28;20079;-74
2021/10/31 09:23:39;;;;;;;14.85;9.32;;;;;;;20.69;65.62;101269.38;5050976;28;20377;-74
2021/10/31 09:26:07;;;;;;;16.30;9.20;;;;;;;20.78;65.81;101267.44;5043163;28;20061;-75
2021/10/31 09:28:35;;;;;;;14.27;8.90;;;;;;;20.88;66.01;101263.66;5041717;28;20061;-75
2021/10/31 09:31:04;;;;;;;12.77;9.10;;;;;;;20.99;65.43;101253.63;5062427;28;20094;-73
2021/10/31 09:33:33;;;;;;;15.45;10.02;;;;;;;21.05;65.60;101250.81;5048153;28;20494;-73
2021/10/31 09:36:01;;;;;;;16.60;9.82;;;;;;;21.11;65.74;101249.81;5044635;28;20065;-74
2021/10/31 09:38:31;;;;;;;19.30;10.40;;;;;;;21.18;65.77;101246.13;5044857;28;20040;-73
2021/10/31 09:40:58;;;;;;;17.23;10.52;;;;;;;21.24;65.89;101246.88;5051462;28;20032;-73
2021/10/31 09:43:29;;;;;;;15.55;9.57;;;;;;;21.30;65.45;101241.38;5060141;28;20037;-72
2021/10/31 09:45:58;;;;;;;15.63;8.70;;;;;;;21.38;64.76;101241.22;5060691;28;20455;-72
2021/10/31 09:48:31;;;;;;;13.77;9.40;;;;;;;21.45;64.31;101237.50;5045821;28;20048;-70
2021/10/31 09:51:02;;;;;;;13.50;9.30;;;;;;;21.53;64.52;101219.38;5052903;28;20086;-71
2021/10/31 09:53:31;;;;;;;12.95;8.00;;;;;;;21.58;64.37;101224.66;5053142;28;20113;-71
2021/10/31 09:55:59;;;;;;;13.80;8.40;;;;;;;21.57;63.70;101220.22;5050738;28;20095;-71
2021/10/31 09:58:32;;;;;;;14.32;9.70;;;;;;;21.61;63.49;101228.16;5056200;28;20057;-70
2021/10/31 10:01:05;;;;;;;15.85;9.70;;;;;;;21.70;63.81;101227.97;5043101;28;20489;-71
2021/10/31 10:03:37;;;;;;;14.77;9.57;;;;;;;21.78;63.66;101219.72;5055693;28;20040;-71
2021/10/31 10:06:18;;;;;;;14.13;9.02;;;;;;;21.88;63.61;101222.16;5055066;28;20035;-71
2021/10/31 10:09:04;;;;;;;11.30;7.00;;;;;;;22.00;63.16;101215.63;5050884;28;20032;-71
2021/10/31 10:11:33;;;;;;;13.07;8.15;;;;;;;22.03;62.81;101217.38;5057907;28;20049;-72
2021/10/31 10:14:15;;;;;;;13.85;9.40;;;;;;;21.99;62.05;101221.06;5048621;28;20045;-71
2021/10/31 10:16:44;;;;;;;15.77;9.20;;;;;;;21.91;62.22;101220.31;5052029;28;20040;-71
2021/10/31 10:19:27;;;;;;;13.60;9.55;;;;;;;21.94;62.06;101214.84;5050796;28;20038;-72
2021/10/31 10:21:57;;;;;;;12.70;9.05;;;;;;;21.98;62.02;101214.81;5048382;28;20400;-79
2021/10/31 10:24:25;;;;;;;17.75;8.68;;;;;;;21.95;61.29;101217.50;5045892;28;20099;-71
2021/10/31 10:26:58;;;;;;;13.02;8.55;;;;;;;21.97;61.11;101204.06;5047222;28;20037;-72
2021/10/31 10:29:29;;;;;;;13.32;8.68;;;;;;;21.99;60.99;101203.09;5062533;28;20049;-71
2021/10/31 10:31:59;;;;;;;14.50;8.02;;;;;;;22.03;60.85;101207.50;5060851;28;20385;-71
2021/10/31 10:34:42;;;;;;;13.05;8.35;;;;;;;21.98;60.79;101204.03;5054474;28;20077;-72
2021/10/31 10:37:12;;;;;;;12.77;8.55;;;;;;;22.10;61.14;101201.06;5061142;28;20115;-73
2021/10/31 10:39:41;;;;;;;12.23;7.85;;;;;;;22.25;61.13;101206.03;5045082;28;20500;-73
2021/10/31 10:42:09;;;;;;;12.70;7.25;;;;;;;22.30;60.76;101200.56;5060150;28;20053;-74
2021/10/31 10:44:39;;;;;;;11.75;7.13;;;;;;;22.36;60.71;101202.19;5062706;28;20508;-74
2021/10/31 10:47:08;;;;;;;16.17;9.10;;;;;;;22.39;60.36;101199.41;5060386;28;20102;-74
2021/10/31 10:49:51;;;;;;;11.32;8.30;;;;;;;22.39;59.99;101191.34;5055339;28;20075;-74
2021/10/31 10:52:22;;;;;;;12.48;7.88;;;;;;;22.33;59.56;101196.88;5059835;28;20131;-74
2021/10/31 10:54:51;;;;;;;13.32;8.20;;;;;;;;;;5058020;28;20033;-75
2021/10/31 10:57:19;;;;;;;16.42;8.20;;;;;;;22.09;59.40;101185.84;5061474;28;20049;-74
2021/10/31 10:59:56;;;;;;;11.52;7.35;;;;;;;21.95;59.19;101179.88;5061031;28;20661;-74
2021/10/31 11:02:26;;;;;;;11.25;8.55;;;;;;;21.84;59.36;101180.16;5055374;28;20045;-74
2021/10/31 11:04:58;;;;;;;14.57;8.32;;;;;;;21.81;59.42;101164.06;5063931;28;20044;-74
2021/10/31 11:07:31;;;;;;;12.43;7.75;;;;;;;21.73;59.49;101175.91;5052510;28;20079;-74
2021/10/31 11:09:59;;;;;;;11.55;8.32;;;;;;;21.65;59.48;101173.44;5053489;28;20443;-72
2021/10/31 11:12:30;;;;;;;12.05;8.82;;;;;;;21.58;59.81;101169.13;5062891;28;20052;-71
2021/10/31 11:15:03;;;;;;;14.50;9.13;;;;;;;21.61;59.96;101168.16;5061923;28;20041;-73
2021/10/31 11:17:31;;;;;;;15.85;8.38;;;;;;;21.56;59.82;101159.31;5060101;28;20701;-75
2021/10/31 11:20:01;;;;;;;17.95;10.15;;;;;;;21.48;60.10;101164.88;5065146;28;20041;-75
2021/10/31 11:22:31;;;;;;;14.73;9.02;;;;;;;21.42;60.30;101162.31;5065725;28;20041;-74
2021/10/31 11:25:01;;;;;;;14.27;8.88;;;;;;;21.43;60.07;101167.66;5061314;28;20053;-75
2021/10/31 11:27:31;;;;;;;13.80;8.57;;;;;;;21.37;60.31;101158.84;5053887;28;20447;-73